Time;durP1;ratioP1;P1;durP2;ratioP2;P2;SDS_P1;SDS_P2;PMS_P1;PMS_P2;Temp;Humidity;BMP_temperature;BMP_pressure;BME280_temperature;BME280_humidity;BME280_pressure;Samples;Min_cycle;Max_cycle;Signal;HPM_P1;HPM_P2
2024/01/05 00:01:31;;;;;;;32.20;12.80;;;;;;;14.71;37.34;98791.61;105300;1254;60429;-47
2024/01/05 00:04:00;;;;;;;23.00;11.70;;;;;;;14.79;37.50;98788.69;105299;1258;60436;-44
2024/01/05 00:06:29;;;;;;;24.90;9.80;;;;;;;14.88;37.48;98795.62;105618;1258;63982;-46
2024/01/05 00:08:57;;;;;;;28.70;12.80;;;;;;;15.00;37.40;98799.80;105757;1257;62426;-48
2024/01/05 00:11:25;;;;;;;30.10;15.60;;;;;;;15.07;37.42;98798.50;105247;1256;64305;-48
2024/01/05 00:13:52;;;;;;;33.20;17.60;;;;;;;15.07;37.47;98797.02;105286;1253;60525;-47
2024/01/05 00:16:21;;;;;;;63.30;38.00;;;;;;;15.11;37.49;98800.67;105802;1256;60540;-48
2024/01/05 00:18:49;;;;;;;29.10;15.40;;;;;;;15.13;37.47;98799.42;106036;1253;68443;-47
2024/01/05 00:21:23;;;;;;;31.00;14.30;;;;;;;15.14;37.24;98799.73;106055;1253;61322;-48
2024/01/05 00:23:52;;;;;;;31.70;14.40;;;;;;;15.15;37.04;98801.19;105769;1256;65027;-47
2024/01/05 00:26:20;;;;;;;38.40;17.70;;;;;;;15.14;37.11;98803.71;106046;1257;60573;-46
2024/01/05 00:28:48;;;;;;;41.20;20.30;;;;;;;15.12;37.15;98807.70;105299;1257;60649;-47
2024/01/05 00:31:16;;;;;;;32.40;16.40;;;;;;;15.09;37.09;98810.76;105447;1253;63658;-47
2024/01/05 00:33:44;;;;;;;25.40;13.90;;;;;;;15.04;37.08;98809.37;105423;1259;60542;-48
2024/01/05 00:36:12;;;;;;;32.20;16.50;;;;;;;15.01;37.03;98807.50;105333;1253;62430;-48
2024/01/05 00:38:46;;;;;;;23.80;14.60;;;;;;;14.97;37.15;98815.09;105334;1258;60496;-47
2024/01/05 00:41:15;;;;;;;29.30;12.00;;;;;;;14.99;37.01;98816.67;105369;1258;60402;-48
2024/01/05 00:43:42;;;;;;;27.40;11.40;;;;;;;15.07;36.97;98819.87;105290;1253;65080;-46
2024/01/05 00:46:10;;;;;;;23.50;10.20;;;;;;;15.13;36.89;98822.66;105472;1254;61407;-48
2024/01/05 00:48:38;;;;;;;54.70;33.10;;;;;;;15.18;36.94;98820.58;105317;1254;65772;-46
2024/01/05 00:51:05;;;;;;;24.80;12.10;;;;;;;15.23;36.95;98816.05;105405;1252;60517;-45
2024/01/05 00:53:33;;;;;;;37.90;18.50;;;;;;;15.28;37.03;98818.99;105287;1253;60369;-45
2024/01/05 00:56:01;;;;;;;34.60;16.00;;;;;;;15.31;36.99;98823.54;105655;1257;64979;-47
2024/01/05 00:58:29;;;;;;;30.50;14.30;;;;;;;15.30;36.91;98825.94;105217;1253;61450;-47
2024/01/05 01:00:56;;;;;;;56.90;36.00;;;;;;;15.25;36.81;98829.94;105679;1259;63760;-46
2024/01/05 01:03:24;;;;;;;33.50;15.50;;;;;;;15.19;36.77;98834.04;105803;1255;60649;-44
2024/01/05 01:05:52;;;;;;;33.10;17.50;;;;;;;15.12;36.84;98838.25;105791;1255;60462;-55
2024/01/05 01:08:19;;;;;;;30.70;17.70;;;;;;;15.05;36.87;98839.17;105312;1253;64921;-48
2024/01/05 01:10:47;;;;;;;39.70;18.00;;;;;;;15.00;37.00;98838.35;105302;1253;68435;-46
2024/01/05 01:13:14;;;;;;;61.70;37.70;;;;;;;14.96;37.02;98836.77;105864;1256;72913;-46
2024/01/05 01:15:42;;;;;;;27.80;15.70;;;;;;;14.91;37.16;98836.84;105290;1254;60542;-45
2024/01/05 01:18:09;;;;;;;24.40;11.80;;;;;;;14.94;37.24;98834.86;105282;1253;60626;-48
2024/01/05 01:20:38;;;;;;;28.70;13.10;;;;;;;14.98;37.23;98835.36;105396;1253;64927;-46
2024/01/05 01:23:06;;;;;;;31.80;16.00;;;;;;;15.06;37.19;98837.79;105276;1258;61340;-46
2024/01/05 01:25:33;;;;;;;26.80;10.00;;;;;;;15.05;37.10;98833.80;105310;1256;72699;-48
2024/01/05 01:28:02;;;;;;;21.50;10.00;;;;;;;15.07;37.12;98835.23;105530;1257;60833;-47
2024/01/05 01:30:30;;;;;;;34.90;15.50;;;;;;;15.13;37.15;98837.69;105605;1253;60439;-46
2024/01/05 01:32:58;;;;;;;35.20;16.30;;;;;;;15.16;37.12;98844.28;105577;1253;64956;-46
2024/01/05 01:35:26;;;;;;;30.70;14.70;;;;;;;15.17;37.05;98841.23;105724;1253;62910;-45
2024/01/05 01:37:53;;;;;;;37.00;17.10;;;;;;;15.15;37.14;98844.23;105260;1259;62527;-46
2024/01/05 01:40:21;;;;;;;32.00;13.70;;;;;;;15.12;37.05;98848.41;105925;1253;60344;-45
2024/01/05 01:42:49;;;;;;;32.90;19.20;;;;;;;15.01;37.16;98846.84;105943;1254;60553;-45
2024/01/05 01:45:17;;;;;;;64.10;40.00;;;;;;;14.94;37.12;98847.21;105954;1258;64866;-46
2024/01/05 01:47:45;;;;;;;26.60;12.90;;;;;;;14.91;37.09;98847.60;105907;1253;61510;-46
2024/01/05 01:50:13;;;;;;;30.00;12.30;;;;;;;14.93;37.22;98847.36;105255;1258;63767;-46
2024/01/05 01:52:43;;;;;;;26.10;12.70;;;;;;;14.95;37.11;98845.80;105348;1256;60513;-45
2024/01/05 01:55:10;;;;;;;31.40;13.00;;;;;;;15.00;37.10;98847.27;105522;1256;60698;-47
2024/01/05 01:57:38;;;;;;;37.30;14.30;;;;;;;15.10;37.16;98847.00;105231;1254;64892;-47
2024/01/05 02:00:07;;;;;;;28.30;14.00;;;;;;;15.20;37.25;98851.38;105256;1258;60454;-48
2024/01/05 02:02:34;;;;;;;33.60;17.30;;;;;;;15.24;37.10;98853.39;105472;1258;62450;-46
2024/01/05 02:05:02;;;;;;;31.90;13.70;;;;;;;15.24;37.08;98858.90;105344;1259;60519;-47
2024/01/05 02:07:30;;;;;;;25.40;13.40;;;;;;;15.26;37.21;98857.74;105473;1253;60601;-46
2024/01/05 02:09:57;;;;;;;30.60;14.60;;;;;;;15.23;37.10;98851.69;105416;1257;64939;-46
2024/01/05 02:12:25;;;;;;;31.00;17.70;;;;;;;15.21;37.01;98852.89;105267;1255;60535;-47
2024/01/05 02:14:52;;;;;;;30.30;14.80;;;;;;;15.16;36.89;98858.63;105718;1256;63777;-46
2024/01/05 02:17:30;;;;;;;47.20;19.60;;;;;;;15.11;37.01;98864.93;105398;1257;60597;-47
2024/01/05 02:19:58;;;;;;;32.90;13.70;;;;;;;15.08;36.90;98860.23;105646;1258;60417;-46
2024/01/05 02:22:29;;;;;;;35.50;13.30;;;;;;;15.11;36.82;98860.34;105794;1258;64920;-47
2024/01/05 02:24:57;;;;;;;36.60;15.50;;;;;;;15.13;36.87;98862.59;105712;1258;61359;-46
2024/01/05 02:27:25;;;;;;;30.40;14.50;;;;;;;15.13;36.85;98860.06;105639;1258;63837;-46
2024/01/05 02:29:53;;;;;;;42.90;20.50;;;;;;;15.12;37.04;98866.02;105858;1256;60503;-46
2024/01/05 02:32:21;;;;;;;32.20;17.70;;;;;;;15.09;37.09;98868.71;105856;1254;60311;-47
2024/01/05 02:34:48;;;;;;;30.90;15.50;;;;;;;15.06;37.05;98869.38;106048;1253;63830;-47
2024/01/05 02:37:16;;;;;;;34.10;16.40;;;;;;;15.01;37.05;98877.53;105359;1254;61353;-47
2024/01/05 02:39:44;;;;;;;38.30;16.50;;;;;;;14.97;37.16;98878.75;105369;1258;63816;-46
2024/01/05 02:42:12;;;;;;;41.00;18.70;;;;;;;14.94;37.24;98875.77;105322;1253;60928;-47
2024/01/05 02:44:39;;;;;;;61.20;39.50;;;;;;;14.88;37.41;98874.77;105482;1259;60541;-46
2024/01/05 02:47:07;;;;;;;25.30;11.70;;;;;;;14.83;37.46;98877.52;105404;1253;64934;-46
2024/01/05 02:49:34;;;;;;;26.50;11.60;;;;;;;14.90;37.37;98883.55;105387;1259;60905;-46
2024/01/05 02:52:03;;;;;;;31.30;13.40;;;;;;;14.98;37.12;98882.70;105497;1258;64251;-46
2024/01/05 02:54:31;;;;;;;25.50;12.00;;;;;;;15.01;36.97;98879.64;105716;1258;60536;-47
2024/01/05 02:56:58;;;;;;;31.50;13.90;;;;;;;15.06;37.08;98879.31;105578;1258;60452;-47
2024/01/05 02:59:26;;;;;;;34.80;14.60;;;;;;;15.12;37.20;98883.63;105252;1253;74395;-46
2024/01/05 03:01:54;;;;;;;33.60;15.50;;;;;;;15.20;37.21;98881.30;105324;1259;61573;-47
2024/01/05 03:04:21;;;;;;;26.40;13.60;;;;;;;15.21;37.21;98883.59;105323;1254;64228;-47
2024/01/05 03:06:49;;;;;;;31.60;14.30;;;;;;;15.20;37.04;98882.36;106729;1255;60527;-47
2024/01/05 03:09:16;;;;;;;54.60;34.80;;;;;;;15.19;36.87;98881.70;105262;1259;60458;-47
2024/01/05 03:11:44;;;;;;;23.90;13.20;;;;;;;15.15;36.91;98884.30;105502;1258;63706;-46
2024/01/05 03:14:13;;;;;;;28.90;15.30;;;;;;;15.08;37.09;98884.14;105395;1253;62222;-47
2024/01/05 03:16:41;;;;;;;29.30;14.50;;;;;;;15.08;37.09;98883.33;105464;1254;62702;-48
2024/01/05 03:19:09;;;;;;;28.00;14.70;;;;;;;15.01;37.01;98890.15;105370;1256;60574;-48
2024/01/05 03:21:36;;;;;;;32.10;13.50;;;;;;;14.96;37.02;98893.92;105613;1253;60563;-48
2024/01/05 03:24:05;;;;;;;39.00;15.60;;;;;;;14.94;37.05;98895.05;105318;1253;65392;-48
2024/01/05 03:26:33;;;;;;;25.70;13.00;;;;;;;14.90;37.03;98897.52;106295;1253;61374;-45
2024/01/05 03:29:01;;;;;;;23.80;10.30;;;;;;;14.87;37.17;98900.44;105335;1256;63731;-45
2024/01/05 03:31:28;;;;;;;28.60;10.90;;;;;;;14.93;37.24;98897.98;105686;1259;60415;-47
2024/01/05 03:33:56;;;;;;;27.30;13.30;;;;;;;14.99;37.34;98894.94;105255;1254;60553;-48
2024/01/05 03:36:24;;;;;;;24.90;10.80;;;;;;;15.06;37.26;98891.63;105312;1253;64927;-47
2024/01/05 03:38:51;;;;;;;28.20;12.20;;;;;;;15.13;37.32;98893.25;105235;1258;61111;-48
2024/01/05 03:41:19;;;;;;;30.50;15.30;;;;;;;15.19;37.09;98892.03;105413;1259;62436;-48
2024/01/05 03:43:47;;;;;;;42.30;16.70;;;;;;;15.19;36.99;98890.41;105311;1254;60561;-48
2024/01/05 03:46:14;;;;;;;26.50;14.40;;;;;;;15.17;37.07;98889.27;105326;1254;60455;-48
2024/01/05 03:48:42;;;;;;;27.70;14.50;;;;;;;15.16;37.04;98892.14;105546;1254;63779;-48
2024/01/05 03:51:10;;;;;;;37.00;18.40;;;;;;;15.14;36.87;98893.63;106073;1253;61372;-46
2024/01/05 03:53:37;;;;;;;54.90;35.70;;;;;;;15.06;36.85;98899.41;105339;1253;64169;-46
2024/01/05 03:56:05;;;;;;;29.30;14.00;;;;;;;14.96;36.87;98901.15;105417;1255;60556;-46
2024/01/05 03:58:33;;;;;;;35.90;15.60;;;;;;;14.90;36.76;98905.59;105392;1258;60487;-46
2024/01/05 04:01:01;;;;;;;31.40;16.40;;;;;;;14.83;36.74;98908.34;105544;1258;64933;-46
2024/01/05 04:03:29;;;;;;;34.90;15.70;;;;;;;14.77;36.80;98908.89;105571;1257;61566;-47
2024/01/05 04:05:57;;;;;;;34.70;16.70;;;;;;;14.73;36.88;98907.84;105765;1253;64513;-46
2024/01/05 04:08:24;;;;;;;37.50;15.50;;;;;;;14.68;36.92;98912.31;105379;1260;60424;-46
2024/01/05 04:10:52;;;;;;;21.30;9.70;;;;;;;14.65;36.82;98912.23;105737;1259;316423;-47
2024/01/05 04:15:19;;;;;;;25.70;13.80;;;;;;;12.66;40.89;98923.19;102390;1292;601166;-47
2024/01/05 04:17:47;;;;;;;18.30;8.10;;;;;;;14.03;38.25;98917.27;104418;1273;59055;-46
2024/01/05 04:20:15;;;;;;;26.70;11.00;;;;;;;14.35;37.89;98918.52;104553;1269;59729;-47
2024/01/05 04:22:42;;;;;;;19.90;11.70;;;;;;;14.53;37.64;98918.13;104439;1269;62012;-47
2024/01/05 04:25:10;;;;;;;35.70;14.00;;;;;;;14.64;37.54;98915.45;104454;1272;62348;-46
2024/01/05 04:27:38;;;;;;;27.50;13.80;;;;;;;14.68;37.32;98919.70;104504;1271;62483;-47
2024/01/05 04:30:06;;;;;;;27.40;14.70;;;;;;;14.70;37.18;98922.98;104804;1269;264179;-46
2024/01/05 04:32:34;;;;;;;32.90;14.60;;;;;;;14.67;37.18;98923.67;104825;1268;59352;-47
2024/01/05 04:35:03;;;;;;;30.00;14.00;;;;;;;14.64;37.18;98932.15;105050;1268;63351;-47
2024/01/05 04:37:30;;;;;;;31.30;13.40;;;;;;;14.61;37.24;98936.66;105053;1267;61405;-46
2024/01/05 04:39:58;;;;;;;27.80;12.80;;;;;;;14.58;37.30;98939.79;104972;1264;63930;-47
2024/01/05 04:42:26;;;;;;;27.50;15.40;;;;;;;14.55;37.32;98942.30;104945;1266;59753;-47
2024/01/05 04:44:54;;;;;;;30.20;14.30;;;;;;;14.49;37.19;98945.23;105268;1266;59572;-48
2024/01/05 04:47:23;;;;;;;29.50;13.40;;;;;;;14.40;37.21;98947.27;105354;1260;62871;-47
2024/01/05 04:49:50;;;;;;;21.00;9.90;;;;;;;14.29;37.28;98950.92;104844;1261;61366;-47
2024/01/05 04:52:18;;;;;;;17.90;7.80;;;;;;;14.24;37.31;98953.02;104825;1265;65030;-46
2024/01/05 04:54:46;;;;;;;20.70;9.00;;;;;;;14.24;37.36;98956.33;104840;1265;59842;-47
2024/01/05 04:57:13;;;;;;;20.20;10.00;;;;;;;14.23;37.25;98959.61;104820;1264;59762;-47
2024/01/05 04:59:41;;;;;;;22.20;8.70;;;;;;;14.27;37.32;98966.48;104851;1267;64119;-48
2024/01/05 05:02:09;;;;;;;22.60;9.80;;;;;;;14.32;37.19;98970.17;104918;1266;61402;-47
2024/01/05 05:04:36;;;;;;;21.60;9.00;;;;;;;14.37;37.21;98972.83;104811;1261;63797;-49
2024/01/05 05:07:04;;;;;;;22.60;11.70;;;;;;;14.38;37.22;98972.03;104871;1265;59624;-47
2024/01/05 05:09:31;;;;;;;27.20;14.40;;;;;;;14.35;37.34;98975.86;104819;1265;59727;-47
2024/01/05 05:11:59;;;;;;;30.30;13.50;;;;;;;14.33;37.35;98984.15;104840;1265;64594;-48
2024/01/05 05:14:27;;;;;;;27.10;11.90;;;;;;;14.31;37.24;98983.30;105246;1261;61426;-47
2024/01/05 05:16:54;;;;;;;27.20;13.60;;;;;;;14.26;37.43;98983.96;105270;1261;64231;-47
2024/01/05 05:19:22;;;;;;;27.40;14.10;;;;;;;14.21;37.37;98984.20;104854;1266;60208;-46
2024/01/05 05:21:50;;;;;;;23.90;12.30;;;;;;;14.12;37.45;98989.77;105283;1264;59555;-47
2024/01/05 05:24:17;;;;;;;23.90;13.80;;;;;;;14.03;37.65;98994.91;104778;1265;64091;-47
2024/01/05 05:26:45;;;;;;;21.70;12.60;;;;;;;13.99;37.71;98995.89;105559;1265;60866;-47
2024/01/05 05:29:13;;;;;;;34.10;14.70;;;;;;;14.01;37.79;98994.94;104855;1266;63804;-47
2024/01/05 05:31:41;;;;;;;25.80;11.00;;;;;;;14.01;37.77;99000.42;104837;1259;59733;-47
2024/01/05 05:34:09;;;;;;;24.40;14.60;;;;;;;13.98;37.84;99001.72;104769;1261;59685;-48
2024/01/05 05:36:37;;;;;;;20.00;9.00;;;;;;;14.04;37.64;99005.76;104996;1267;72629;-47
2024/01/05 05:39:05;;;;;;;21.10;9.10;;;;;;;14.12;37.58;99008.33;104793;1266;60111;-47
2024/01/05 05:41:32;;;;;;;23.00;10.30;;;;;;;14.17;37.48;99011.70;105245;1265;63771;-48
2024/01/05 05:44:00;;;;;;;22.00;8.50;;;;;;;14.19;37.57;99011.20;104794;1260;59858;-47
2024/01/05 05:46:27;;;;;;;19.20;8.50;;;;;;;14.24;37.56;99015.91;104867;1261;59657;-47
2024/01/05 05:48:55;;;;;;;22.00;9.20;;;;;;;14.29;37.71;99018.98;105162;1261;64153;-47
2024/01/05 05:51:23;;;;;;;20.50;12.10;;;;;;;14.35;37.65;99025.31;105393;1264;61849;-47
2024/01/05 05:53:51;;;;;;;24.50;10.60;;;;;;;14.39;37.68;99028.88;105523;1261;63850;-48
2024/01/05 05:56:18;;;;;;;23.90;11.40;;;;;;;14.39;37.58;99030.02;104842;1266;59743;-47
2024/01/05 05:58:46;;;;;;;25.30;12.60;;;;;;;14.38;37.74;99031.31;104786;1265;59749;-47
2024/01/05 06:01:14;;;;;;;22.20;11.00;;;;;;;14.37;37.72;99034.85;104881;1265;62929;-47
2024/01/05 06:03:42;;;;;;;37.60;24.30;;;;;;;14.41;37.80;99038.32;104926;1264;61431;-47
2024/01/05 06:06:18;;;;;;;17.80;8.60;;;;;;;14.44;37.72;99039.30;104886;1267;64894;-47
2024/01/05 06:08:46;;;;;;;11.30;3.70;;;;;;;14.53;37.60;99042.73;104698;1266;60022;-47
2024/01/05 06:11:16;;;;;;;18.00;6.20;;;;;;;14.66;38.08;99041.40;104746;1266;59576;-47
2024/01/05 06:13:46;;;;;;;23.60;9.90;;;;;;;14.79;38.31;99044.10;105426;1254;64105;-47
2024/01/05 06:16:14;;;;;;;41.30;27.00;;;;;;;14.93;38.27;99045.95;106197;1251;61374;-48
2024/01/05 06:18:42;;;;;;;29.30;12.00;;;;;;;15.04;38.19;99047.77;105394;1254;63930;-47
2024/01/05 06:21:10;;;;;;;21.80;11.40;;;;;;;15.14;37.83;99050.76;105522;1254;59747;-48
2024/01/05 06:23:37;;;;;;;22.60;10.80;;;;;;;15.18;37.68;99051.54;105475;1254;59736;-48
2024/01/05 06:26:05;;;;;;;11.10;5.20;;;;;;;15.19;37.78;99054.32;105448;1252;62933;-49
2024/01/05 06:28:33;;;;;;;8.70;4.00;;;;;;;15.20;38.23;99058.58;105407;1254;60610;-48
2024/01/05 06:31:00;;;;;;;11.00;3.60;;;;;;;15.29;38.75;99061.94;105887;1255;62495;-48
2024/01/05 06:33:28;;;;;;;7.60;2.50;;;;;;;15.41;39.04;99063.51;105450;1256;60387;-48
2024/01/05 06:35:56;;;;;;;9.40;3.90;;;;;;;15.58;39.22;99065.86;105407;1257;59571;-48
2024/01/05 06:38:23;;;;;;;5.90;2.10;;;;;;;15.74;39.38;99068.52;106008;1251;64153;-48
2024/01/05 06:40:51;;;;;;;5.30;1.90;;;;;;;15.88;39.53;99067.90;105476;1256;60282;-48
2024/01/05 06:43:18;;;;;;;7.90;2.30;;;;;;;15.99;39.79;99071.19;105505;1257;62420;-48
2024/01/05 06:45:46;;;;;;;5.00;2.20;;;;;;;16.12;39.81;99077.43;105381;1257;60434;-47
2024/01/05 06:48:13;;;;;;;4.60;1.50;;;;;;;16.26;39.83;99079.14;105503;1253;59682;-47
2024/01/05 06:50:41;;;;;;;7.10;4.70;;;;;;;16.40;39.82;99081.95;105333;1254;62826;-47
2024/01/05 06:53:09;;;;;;;8.20;3.10;;;;;;;16.50;39.64;99085.77;105412;1254;61304;-47
2024/01/05 06:55:37;;;;;;;6.20;2.40;;;;;;;16.57;39.68;99087.70;105384;1254;63671;-47
2024/01/05 06:58:04;;;;;;;8.90;4.80;;;;;;;16.58;39.78;99090.00;105373;1254;59793;-47
2024/01/05 07:00:33;;;;;;;7.00;1.80;;;;;;;16.58;39.69;99095.27;105729;1251;59667;-47
2024/01/05 07:03:00;;;;;;;6.10;2.70;;;;;;;16.59;39.74;99094.30;105510;1257;64649;-48
2024/01/05 07:05:28;;;;;;;5.30;2.60;;;;;;;16.57;39.74;99099.11;105413;1251;61728;-48
2024/01/05 07:07:55;;;;;;;6.10;1.70;;;;;;;16.44;39.82;99103.95;105521;1254;62629;-47
2024/01/05 07:10:23;;;;;;;8.10;4.50;;;;;;;16.37;39.80;99114.89;105515;1256;59841;-52
2024/01/05 07:12:52;;;;;;;4.70;1.60;;;;;;;16.41;39.84;99118.48;106082;1254;59801;-47
2024/01/05 07:15:19;;;;;;;4.50;1.40;;;;;;;16.47;39.74;99119.56;105986;1254;64144;-46
2024/01/05 07:17:47;;;;;;;6.30;3.40;;;;;;;16.63;39.54;99124.77;105526;1258;60240;-47
2024/01/05 07:20:15;;;;;;;5.70;2.10;;;;;;;16.66;39.47;99130.63;106057;1253;63977;-48
2024/01/05 07:22:43;;;;;;;9.00;4.60;;;;;;;16.59;39.49;99133.93;105298;1254;61353;-47
2024/01/05 07:25:10;;;;;;;5.00;1.70;;;;;;;16.50;39.63;99145.02;105577;1251;59740;-48
2024/01/05 07:27:38;;;;;;;6.20;3.20;;;;;;;16.44;39.72;99150.60;105491;1257;64179;-47
2024/01/05 07:30:06;;;;;;;4.40;0.80;;;;;;;16.47;39.64;99151.48;105387;1258;60250;-47
2024/01/05 07:32:34;;;;;;;3.60;1.30;;;;;;;16.52;39.42;99157.05;106426;1255;64226;-48
2024/01/05 07:35:04;;;;;;;4.90;1.90;;;;;;;16.46;39.55;99170.23;105345;1255;59869;-47
2024/01/05 07:37:31;;;;;;;4.60;1.30;;;;;;;16.45;39.64;99177.07;105570;1256;59858;-47
2024/01/05 07:39:58;;;;;;;5.10;2.30;;;;;;;16.46;39.56;99178.71;105494;1251;62898;-47
2024/01/05 07:42:27;;;;;;;3.10;0.80;;;;;;;16.44;39.63;99186.09;105583;1251;61815;-48
2024/01/05 07:44:57;;;;;;;3.10;1.10;;;;;;;16.44;39.63;99196.35;105896;1253;73441;-47
2024/01/05 07:47:25;;;;;;;3.40;1.20;;;;;;;16.39;39.47;99209.56;105754;1253;59808;-46
2024/01/05 07:49:53;;;;;;;2.20;0.60;;;;;;;16.43;39.24;99202.30;105936;1257;59555;-47
2024/01/05 07:52:21;;;;;;;4.10;1.20;;;;;;;16.49;39.14;99207.27;106094;1251;64135;-46
2024/01/05 07:54:48;;;;;;;2.40;0.50;;;;;;;16.51;39.17;99215.45;105410;1257;61777;-46
2024/01/05 07:57:16;;;;;;;3.60;1.30;;;;;;;16.54;39.03;99223.80;105369;1254;63708;-46
2024/01/05 07:59:43;;;;;;;3.40;0.60;;;;;;;16.55;38.98;99226.48;105996;1252;59737;-46
2024/01/05 08:02:11;;;;;;;4.00;0.70;;;;;;;16.59;38.98;99230.72;105423;1254;59755;-46
2024/01/05 08:04:39;;;;;;;6.20;2.10;;;;;;;16.65;38.76;99235.35;105301;1254;64322;-46
2024/01/05 08:07:07;;;;;;;2.80;1.00;;;;;;;16.67;38.47;99246.19;105515;1251;61336;-46
2024/01/05 08:09:34;;;;;;;3.40;1.30;;;;;;;16.63;38.36;99254.56;105418;1253;63710;-47
2024/01/05 08:12:02;;;;;;;1.10;0.30;;;;;;;16.56;38.10;99261.29;105364;1251;59852;-47
2024/01/05 08:14:30;;;;;;;1.70;0.40;;;;;;;16.52;38.16;99268.67;105816;1257;59724;-46
2024/01/05 08:16:58;;;;;;;1.80;0.40;;;;;;;16.52;38.02;99276.77;105493;1257;64064;-52
2024/01/05 08:19:25;;;;;;;3.40;1.30;;;;;;;16.50;38.03;99284.64;105704;1257;62888;-47
2024/01/05 08:21:53;;;;;;;2.70;0.80;;;;;;;16.55;38.27;99293.42;105340;1257;71770;-47
2024/01/05 08:24:21;;;;;;;4.50;1.50;;;;;;;16.53;38.09;99295.38;105459;1257;61750;-47
2024/01/05 08:26:49;;;;;;;2.50;0.70;;;;;;;16.45;38.06;99296.52;106949;1250;60633;-47
2024/01/05 08:29:17;;;;;;;2.80;0.70;;;;;;;16.34;38.15;99301.77;105338;1251;63758;-48
2024/01/05 08:31:44;;;;;;;5.30;2.00;;;;;;;16.23;38.49;99308.75;105428;1251;61414;-47
2024/01/05 08:34:12;;;;;;;3.50;0.70;;;;;;;16.15;38.63;99315.07;105334;1254;63913;-47
2024/01/05 08:36:40;;;;;;;3.10;0.90;;;;;;;16.16;38.68;99315.33;105411;1253;60446;-48
2024/01/05 08:39:09;;;;;;;3.20;0.70;;;;;;;16.21;38.66;99317.06;106276;1253;60549;-47
2024/01/05 08:41:36;;;;;;;2.10;0.60;;;;;;;16.27;38.70;99323.74;105410;1250;63706;-44
2024/01/05 08:44:04;;;;;;;7.60;2.40;;;;;;;16.31;38.65;99327.83;105322;1257;62125;-49
2024/01/05 08:46:32;;;;;;;4.10;0.80;;;;;;;16.34;38.49;99336.83;105803;1254;63739;-46
2024/01/05 08:48:59;;;;;;;6.30;1.50;;;;;;;16.30;38.44;99343.80;105416;1251;60473;-47
2024/01/05 08:51:28;;;;;;;3.20;0.50;;;;;;;16.23;38.32;99352.36;105325;1251;60560;-47
2024/01/05 08:53:58;;;;;;;2.40;0.80;;;;;;;16.19;38.39;99351.05;105848;1251;63665;-47
2024/01/05 08:56:25;;;;;;;3.00;1.10;;;;;;;16.21;38.43;99355.09;105826;1254;61305;-48
2024/01/05 08:58:55;;;;;;;4.80;1.70;;;;;;;16.21;38.44;99358.19;106032;1253;62527;-49
2024/01/05 09:01:22;;;;;;;5.40;1.10;;;;;;;16.21;38.46;99361.77;105439;1250;60529;-47
2024/01/05 09:03:50;;;;;;;3.00;0.80;;;;;;;16.22;38.42;99363.91;106205;1256;60585;-47
2024/01/05 09:06:18;;;;;;;2.40;0.50;;;;;;;16.22;38.39;99370.69;106810;1251;64908;-48
2024/01/05 09:08:45;;;;;;;6.40;2.30;;;;;;;16.25;38.52;99373.90;105410;1257;61675;-48
2024/01/05 09:11:14;;;;;;;4.20;0.90;;;;;;;16.38;38.29;99374.80;105482;1253;62411;-48
2024/01/05 09:13:41;;;;;;;5.30;2.20;;;;;;;16.48;38.31;99371.26;106188;1255;60734;-48
2024/01/05 09:16:09;;;;;;;3.90;1.30;;;;;;;16.55;38.27;99374.15;105613;1251;60557;-48
2024/01/05 09:18:37;;;;;;;7.10;2.90;;;;;;;16.58;37.94;99371.69;105657;1251;63939;-47
2024/01/05 09:21:07;;;;;;;8.70;4.90;;;;;;;16.59;37.60;99378.25;105603;1257;60568;-48
2024/01/05 09:23:35;;;;;;;9.90;3.40;;;;;;;16.59;37.54;99380.42;105451;1253;63916;-49
2024/01/05 09:26:02;;;;;;;8.70;4.80;;;;;;;16.58;37.39;99376.77;105454;1250;60499;-48
2024/01/05 09:28:30;;;;;;;5.30;1.90;;;;;;;16.54;37.28;99377.33;106501;1257;60337;-47
2024/01/05 09:30:57;;;;;;;6.40;1.40;;;;;;;16.49;36.94;99385.45;105410;1250;64970;-47
2024/01/05 09:33:25;;;;;;;5.50;1.60;;;;;;;16.49;36.72;99390.60;105881;1251;71155;-48
2024/01/05 09:35:53;;;;;;;11.20;4.70;;;;;;;16.44;36.70;99399.88;105836;1257;63769;-48
2024/01/05 09:38:20;;;;;;;6.90;2.30;;;;;;;16.30;36.27;99404.97;105445;1254;60577;-47
2024/01/05 09:40:52;;;;;;;5.20;2.10;;;;;;;16.19;36.25;99405.20;105369;1253;60373;-48
2024/01/05 09:43:21;;;;;;;7.20;3.60;;;;;;;16.13;36.21;99410.83;106921;1256;64875;-47
2024/01/05 09:45:49;;;;;;;4.60;1.30;;;;;;;15.97;36.20;99419.05;105902;1252;60443;-48
2024/01/05 09:48:21;;;;;;;6.00;2.80;;;;;;;15.95;36.32;99426.07;106844;1253;62511;-47
2024/01/05 09:50:56;;;;;;;2.60;0.80;;;;;;;16.00;36.37;99428.50;105463;1255;59848;-48
2024/01/05 09:53:24;;;;;;;4.70;1.40;;;;;;;16.01;36.50;99430.31;105429;1256;60346;-47
2024/01/05 09:55:52;;;;;;;3.10;0.60;;;;;;;16.01;36.58;99431.05;105812;1250;65063;-47
2024/01/05 09:58:19;;;;;;;2.80;1.20;;;;;;;15.96;36.46;99435.09;105305;1253;62165;-47
2024/01/05 10:00:49;;;;;;;6.50;3.10;;;;;;;15.93;36.68;99434.61;106042;1253;63821;-48
2024/01/05 10:03:21;;;;;;;5.80;1.80;;;;;;;15.87;36.41;99431.18;105519;1252;60540;-46
2024/01/05 10:05:50;;;;;;;7.40;1.60;;;;;;;15.90;36.26;99437.09;106057;1257;60420;-46
2024/01/05 10:08:18;;;;;;;6.00;3.20;;;;;;;15.95;36.41;99442.98;105439;1253;63704;-46
2024/01/05 10:10:48;;;;;;;2.60;0.90;;;;;;;16.01;36.37;99445.48;106099;1250;60878;-47
2024/01/05 10:13:16;;;;;;;7.10;3.00;;;;;;;16.01;36.26;99448.29;105320;1251;63740;-50
2024/01/05 10:16:04;;;;;;;4.30;1.20;;;;;;;15.97;36.43;99454.27;105480;1250;60635;-47
2024/01/05 10:18:33;;;;;;;5.90;1.90;;;;;;;15.91;35.89;99459.27;105654;1257;61157;-48
2024/01/05 10:21:08;;;;;;;11.00;5.90;;;;;;;15.85;35.59;99464.61;105595;1250;65368;-46
2024/01/05 10:23:43;;;;;;;5.60;1.70;;;;;;;15.76;35.62;99465.20;105544;1257;60477;-47
2024/01/05 10:26:18;;;;;;;6.50;1.70;;;;;;;15.66;35.45;99465.98;105398;1253;63768;-47
2024/01/05 10:28:48;;;;;;;5.90;2.80;;;;;;;15.72;35.46;99466.88;106088;1254;60546;-47
2024/01/05 10:31:19;;;;;;;3.70;1.60;;;;;;;15.72;35.46;99470.39;106057;1250;60533;-47
2024/01/05 10:33:54;;;;;;;4.80;1.80;;;;;;;15.72;35.52;99477.11;105973;1252;65055;-48
2024/01/05 10:36:23;;;;;;;7.40;2.00;;;;;;;15.72;35.81;99484.00;106022;1257;61378;-48
2024/01/05 10:38:51;;;;;;;10.90;5.20;;;;;;;15.68;35.75;99486.30;105920;1251;64094;-47
2024/01/05 10:41:21;;;;;;;5.80;2.10;;;;;;;15.63;35.69;99491.14;106902;1252;60598;-48
2024/01/05 10:43:49;;;;;;;8.10;2.40;;;;;;;15.63;35.74;99494.05;106088;1257;60428;-47
2024/01/05 10:46:20;;;;;;;8.50;2.50;;;;;;;15.67;35.71;99498.27;105948;1250;73075;-46
2024/01/05 10:48:48;;;;;;;8.50;3.60;;;;;;;15.64;35.82;99499.85;106146;1254;60580;-47
2024/01/05 10:51:18;;;;;;;7.00;2.30;;;;;;;15.59;35.91;99499.56;105902;1253;74901;-47
2024/01/05 10:53:47;;;;;;;6.50;2.40;;;;;;;15.57;35.84;99500.51;105352;1257;60476;-47
2024/01/05 10:56:15;;;;;;;5.60;2.30;;;;;;;15.52;35.96;99505.06;105474;1257;60306;-47
2024/01/05 10:58:43;;;;;;;8.60;4.50;;;;;;;15.51;35.92;99509.61;105313;1250;65096;-47
2024/01/05 11:01:10;;;;;;;6.10;1.70;;;;;;;15.54;36.08;99520.97;105372;1250;61514;-48
2024/01/05 11:03:40;;;;;;;7.30;2.30;;;;;;;15.59;36.18;99524.61;105470;1251;65718;-48
2024/01/05 11:06:11;;;;;;;9.20;3.50;;;;;;;15.63;36.25;99528.73;105546;1250;60480;-48
2024/01/05 11:08:47;;;;;;;6.70;2.00;;;;;;;15.67;36.25;99533.38;105447;1257;60584;-47
2024/01/05 11:11:17;;;;;;;;;;;;;;;15.68;36.25;99539.90;105447;1251;63819;-48
2024/01/05 11:13:56;;;;;;;6.70;1.60;;;;;;;15.65;36.31;99547.45;105490;1257;60909;-48
2024/01/05 11:16:52;;;;;;;5.40;2.30;;;;;;;15.59;36.26;99556.64;105982;1254;64358;-48
2024/01/05 11:19:26;;;;;;;5.80;1.60;;;;;;;15.52;36.44;99559.77;106131;1256;60512;-47
2024/01/05 11:21:59;;;;;;;3.90;1.40;;;;;;;15.51;36.44;99563.34;105450;1256;60400;-47
2024/01/05 11:24:26;;;;;;;6.10;1.50;;;;;;;15.52;36.54;99573.14;105553;1258;64903;-47